sensor_id;sensor_type;location;lat;lon;timestamp;pressure;altitude;pressure_sealevel;temperature;humidity
35577;BME280;21680;52.400;16.920;2023-05-08T00:00:19;102008.92;;;6.34;64.93
35577;BME280;21680;52.400;16.920;2023-05-08T00:02:44;102013.02;;;6.31;64.94
35577;BME280;21680;52.400;16.920;2023-05-08T00:05:09;102014.09;;;6.28;65.02
35577;BME280;21680;52.400;16.920;2023-05-08T00:07:36;102013.92;;;6.23;64.93
35577;BME280;21680;52.400;16.920;2023-05-08T00:10:03;102013.77;;;6.20;65.16
35577;BME280;21680;52.400;16.920;2023-05-08T00:12:28;102008.45;;;6.17;65.06
35577;BME280;21680;52.400;16.920;2023-05-08T00:14:54;102007.04;;;6.16;65.23
35577;BME280;21680;52.400;16.920;2023-05-08T00:17:19;102009.17;;;6.14;65.42
35577;BME280;21680;52.400;16.920;2023-05-08T00:19:44;102008.83;;;6.12;65.49
35577;BME280;21680;52.400;16.920;2023-05-08T00:22:09;102011.85;;;6.09;65.49
35577;BME280;21680;52.400;16.920;2023-05-08T00:24:35;102014.88;;;6.07;65.60
35577;BME280;21680;52.400;16.920;2023-05-08T00:27:00;102012.75;;;6.05;65.69
35577;BME280;21680;52.400;16.920;2023-05-08T00:29:25;102008.32;;;6.02;65.58
35577;BME280;21680;52.400;16.920;2023-05-08T00:31:51;102012.41;;;5.99;65.71
35577;BME280;21680;52.400;16.920;2023-05-08T00:34:16;102010.11;;;5.96;65.84
35577;BME280;21680;52.400;16.920;2023-05-08T00:36:41;102009.59;;;5.93;65.99
35577;BME280;21680;52.400;16.920;2023-05-08T00:39:07;102010.66;;;5.91;66.20
35577;BME280;21680;52.400;16.920;2023-05-08T00:41:32;102007.08;;;5.88;66.16
35577;BME280;21680;52.400;16.920;2023-05-08T00:43:58;102008.50;;;5.86;66.15
35577;BME280;21680;52.400;16.920;2023-05-08T00:46:23;102014.17;;;5.84;66.28
35577;BME280;21680;52.400;16.920;2023-05-08T00:48:48;102013.31;;;5.79;66.08
35577;BME280;21680;52.400;16.920;2023-05-08T00:51:14;102016.69;;;5.75;66.24
35577;BME280;21680;52.400;16.920;2023-05-08T00:53:42;102017.40;;;5.72;66.54
35577;BME280;21680;52.400;16.920;2023-05-08T00:56:10;102021.48;;;5.71;66.62
35577;BME280;21680;52.400;16.920;2023-05-08T00:58:36;102025.20;;;5.69;66.57
35577;BME280;21680;52.400;16.920;2023-05-08T01:01:03;102025.74;;;5.66;66.35
35577;BME280;21680;52.400;16.920;2023-05-08T01:03:29;102023.79;;;5.62;66.78
35577;BME280;21680;52.400;16.920;2023-05-08T01:05:55;102022.38;;;5.60;66.84
35577;BME280;21680;52.400;16.920;2023-05-08T01:08:21;102027.16;;;5.56;66.92
35577;BME280;21680;52.400;16.920;2023-05-08T01:11:36;102023.45;;;5.52;66.86
35577;BME280;21680;52.400;16.920;2023-05-08T01:13:49;102031.77;;;5.46;67.03
35577;BME280;21680;52.400;16.920;2023-05-08T01:16:22;102032.49;;;5.43;67.14
35577;BME280;21680;52.400;16.920;2023-05-08T01:19:20;102030.54;;;5.39;67.17
35577;BME280;21680;52.400;16.920;2023-05-08T01:22:06;102033.91;;;5.36;67.15
35577;BME280;21680;52.400;16.920;2023-05-08T01:33:23;102039.77;;;5.18;67.72
35577;BME280;21680;52.400;16.920;2023-05-08T01:35:55;102044.56;;;5.17;67.54
35577;BME280;21680;52.400;16.920;2023-05-08T01:41:13;102044.91;;;5.15;67.89
35577;BME280;21680;52.400;16.920;2023-05-08T01:46:31;102043.14;;;5.10;67.98
35577;BME280;21680;52.400;16.920;2023-05-08T01:49:31;102045.79;;;5.08;68.06
35577;BME280;21680;52.400;16.920;2023-05-08T01:52:02;102048.98;;;5.07;67.91
35577;BME280;21680;52.400;16.920;2023-05-08T01:54:38;102050.39;;;5.04;67.94
35577;BME280;21680;52.400;16.920;2023-05-08T01:57:06;102049.85;;;5.01;67.99
35577;BME280;21680;52.400;16.920;2023-05-08T01:59:35;102054.63;;;4.98;68.12
35577;BME280;21680;52.400;16.920;2023-05-08T02:02:02;102056.74;;;4.96;68.13
35577;BME280;21680;52.400;16.920;2023-05-08T02:04:29;102054.27;;;4.94;68.04
35577;BME280;21680;52.400;16.920;2023-05-08T02:06:55;102057.98;;;4.90;68.23
35577;BME280;21680;52.400;16.920;2023-05-08T02:09:22;102058.14;;;4.87;68.19
35577;BME280;21680;52.400;16.920;2023-05-08T02:11:50;102058.14;;;4.85;68.32
35577;BME280;21680;52.400;16.920;2023-05-08T02:14:18;102060.97;;;4.83;68.36
35577;BME280;21680;52.400;16.920;2023-05-08T02:16:45;102055.66;;;4.82;68.74
35577;BME280;21680;52.400;16.920;2023-05-08T02:19:13;102054.77;;;4.81;68.83
35577;BME280;21680;52.400;16.920;2023-05-08T02:21:40;102055.11;;;4.79;68.72
35577;BME280;21680;52.400;16.920;2023-05-08T02:24:08;102050.86;;;4.78;68.86
35577;BME280;21680;52.400;16.920;2023-05-08T02:26:34;102051.73;;;4.76;68.74
35577;BME280;21680;52.400;16.920;2023-05-08T02:29:01;102057.93;;;4.75;68.83
35577;BME280;21680;52.400;16.920;2023-05-08T02:31:28;102059.34;;;4.72;68.90
35577;BME280;21680;52.400;16.920;2023-05-08T02:33:54;102061.10;;;4.70;68.97
35577;BME280;21680;52.400;16.920;2023-05-08T02:36:21;102060.38;;;4.66;68.89
35577;BME280;21680;52.400;16.920;2023-05-08T02:38:50;102063.73;;;4.62;68.90
35577;BME280;21680;52.400;16.920;2023-05-08T02:41:18;102062.83;;;4.57;69.07
35577;BME280;21680;52.400;16.920;2023-05-08T02:43:44;102064.41;;;4.54;69.21
35577;BME280;21680;52.400;16.920;2023-05-08T02:46:15;102068.12;;;4.52;69.25
35577;BME280;21680;52.400;16.920;2023-05-08T02:48:59;102069.70;;;4.50;69.36
35577;BME280;21680;52.400;16.920;2023-05-08T02:54:22;102072.68;;;4.44;69.25
35577;BME280;21680;52.400;16.920;2023-05-08T02:57:07;102076.92;;;4.42;69.38
35577;BME280;21680;52.400;16.920;2023-05-08T02:59:37;102076.20;;;4.40;69.66
35577;BME280;21680;52.400;16.920;2023-05-08T03:05:04;102080.25;;;4.36;69.76
35577;BME280;21680;52.400;16.920;2023-05-08T03:07:37;102082.90;;;4.35;69.90
35577;BME280;21680;52.400;16.920;2023-05-08T03:10:05;102080.23;;;4.33;70.02
35577;BME280;21680;52.400;16.920;2023-05-08T03:12:33;102083.77;;;4.31;69.93
35577;BME280;21680;52.400;16.920;2023-05-08T03:17:32;102086.05;;;4.28;69.91
35577;BME280;21680;52.400;16.920;2023-05-08T03:20:03;102085.69;;;4.26;69.92
35577;BME280;21680;52.400;16.920;2023-05-08T03:22:31;102088.68;;;4.24;70.17
35577;BME280;21680;52.400;16.920;2023-05-08T03:24:59;102088.15;;;4.23;70.08
35577;BME280;21680;52.400;16.920;2023-05-08T03:27:28;102092.73;;;4.23;70.15
35577;BME280;21680;52.400;16.920;2023-05-08T03:29:55;102092.58;;;4.23;70.25
35577;BME280;21680;52.400;16.920;2023-05-08T03:32:26;102092.23;;;4.25;70.31
35577;BME280;21680;52.400;16.920;2023-05-08T03:34:53;102094.19;;;4.28;70.32
35577;BME280;21680;52.400;16.920;2023-05-08T03:37:19;102095.09;;;4.31;70.37
35577;BME280;21680;52.400;16.920;2023-05-08T03:39:45;102093.52;;;4.33;70.52
35577;BME280;21680;52.400;16.920;2023-05-08T03:42:11;102092.28;;;4.35;70.45
35577;BME280;21680;52.400;16.920;2023-05-08T03:44:49;102099.70;;;4.35;70.45
35577;BME280;21680;52.400;16.920;2023-05-08T03:47:17;102099.17;;;4.36;70.62
35577;BME280;21680;52.400;16.920;2023-05-08T03:49:44;102100.95;;;4.35;70.66
35577;BME280;21680;52.400;16.920;2023-05-08T03:52:11;102098.13;;;4.35;70.57
35577;BME280;21680;52.400;16.920;2023-05-08T03:54:37;102098.48;;;4.37;70.86
35577;BME280;21680;52.400;16.920;2023-05-08T03:57:02;102099.02;;;4.38;70.80
35577;BME280;21680;52.400;16.920;2023-05-08T03:59:43;102094.07;;;4.38;71.06
35577;BME280;21680;52.400;16.920;2023-05-08T04:02:19;102095.48;;;4.40;71.11
35577;BME280;21680;52.400;16.920;2023-05-08T04:04:49;102096.73;;;4.42;71.09
35577;BME280;21680;52.400;16.920;2023-05-08T04:10:13;102101.02;;;4.47;71.21
35577;BME280;21680;52.400;16.920;2023-05-08T04:13:06;102099.96;;;4.49;71.06
35577;BME280;21680;52.400;16.920;2023-05-08T04:15:56;102103.69;;;4.52;71.13
35577;BME280;21680;52.400;16.920;2023-05-08T04:18:27;102104.42;;;4.55;71.28
35577;BME280;21680;52.400;16.920;2023-05-08T04:20:53;102106.55;;;4.57;71.35
35577;BME280;21680;52.400;16.920;2023-05-08T04:23:21;102108.52;;;4.61;71.26
35577;BME280;21680;52.400;16.920;2023-05-08T04:25:48;102113.30;;;4.62;71.35
35577;BME280;21680;52.400;16.920;2023-05-08T04:28:16;102114.38;;;4.65;71.53
35577;BME280;21680;52.400;16.920;2023-05-08T04:30:41;102117.94;;;4.69;71.77
35577;BME280;21680;52.400;16.920;2023-05-08T04:33:07;102123.63;;;4.73;71.57
35577;BME280;21680;52.400;16.920;2023-05-08T04:35:33;102121.69;;;4.76;71.75
35577;BME280;21680;52.400;16.920;2023-05-08T04:37:59;102123.65;;;4.79;71.71
35577;BME280;21680;52.400;16.920;2023-05-08T04:40:24;102125.26;;;4.84;71.86
35577;BME280;21680;52.400;16.920;2023-05-08T04:42:50;102130.05;;;4.88;71.64
35577;BME280;21680;52.400;16.920;2023-05-08T04:45:15;102129.54;;;4.93;71.88
35577;BME280;21680;52.400;16.920;2023-05-08T04:47:41;102135.41;;;4.98;71.91
35577;BME280;21680;52.400;16.920;2023-05-08T04:50:06;102141.27;;;5.04;71.93
35577;BME280;21680;52.400;16.920;2023-05-08T04:52:33;102142.36;;;5.09;72.03
35577;BME280;21680;52.400;16.920;2023-05-08T04:54:59;102143.96;;;5.14;71.97
35577;BME280;21680;52.400;16.920;2023-05-08T04:57:24;102147.33;;;5.20;71.98
35577;BME280;21680;52.400;16.920;2023-05-08T04:59:49;102149.45;;;5.26;72.02
35577;BME280;21680;52.400;16.920;2023-05-08T05:02:15;102156.38;;;5.33;72.17
35577;BME280;21680;52.400;16.920;2023-05-08T05:04:40;102160.65;;;5.39;72.03
35577;BME280;21680;52.400;16.920;2023-05-08T05:07:06;102164.04;;;5.45;71.99
35577;BME280;21680;52.400;16.920;2023-05-08T05:09:31;102165.82;;;5.51;72.17
35577;BME280;21680;52.400;16.920;2023-05-08T05:12:02;102165.13;;;5.59;72.16
35577;BME280;21680;52.400;16.920;2023-05-08T05:14:27;102163.71;;;5.67;72.21
35577;BME280;21680;52.400;16.920;2023-05-08T05:16:52;102162.65;;;5.74;72.17
35577;BME280;21680;52.400;16.920;2023-05-08T05:19:17;102162.66;;;5.80;72.23
35577;BME280;21680;52.400;16.920;2023-05-08T05:21:43;102163.39;;;5.86;72.22
35577;BME280;21680;52.400;16.920;2023-05-08T05:24:08;102168.36;;;5.95;72.22
35577;BME280;21680;52.400;16.920;2023-05-08T05:26:33;102172.98;;;6.04;72.21
35577;BME280;21680;52.400;16.920;2023-05-08T05:28:59;102178.30;;;6.12;72.42
35577;BME280;21680;52.400;16.920;2023-05-08T05:31:24;102179.36;;;6.23;72.36
35577;BME280;21680;52.400;16.920;2023-05-08T05:33:49;102179.70;;;6.33;72.35
35577;BME280;21680;52.400;16.920;2023-05-08T05:36:15;102179.33;;;6.45;72.33
35577;BME280;21680;52.400;16.920;2023-05-08T05:38:41;102183.75;;;6.55;72.33
35577;BME280;21680;52.400;16.920;2023-05-08T05:41:06;102181.24;;;6.63;72.26
35577;BME280;21680;52.400;16.920;2023-05-08T05:43:31;102176.95;;;6.74;72.36
35577;BME280;21680;52.400;16.920;2023-05-08T05:46:04;102176.73;;;6.87;72.34
35577;BME280;21680;52.400;16.920;2023-05-08T05:48:31;102182.73;;;6.97;72.20
35577;BME280;21680;52.400;16.920;2023-05-08T05:50:56;102180.38;;;7.07;72.27
35577;BME280;21680;52.400;16.920;2023-05-08T05:53:22;102176.06;;;7.18;72.11
35577;BME280;21680;52.400;16.920;2023-05-08T05:55:47;102181.90;;;7.25;72.13
35577;BME280;21680;52.400;16.920;2023-05-08T05:58:12;102184.36;;;7.31;71.94
35577;BME280;21680;52.400;16.920;2023-05-08T06:00:37;102183.26;;;7.37;72.02
35577;BME280;21680;52.400;16.920;2023-05-08T06:03:03;102185.35;;;7.43;71.98
35577;BME280;21680;52.400;16.920;2023-05-08T06:05:28;102187.10;;;7.49;71.86
35577;BME280;21680;52.400;16.920;2023-05-08T06:07:53;102187.23;;;7.54;71.77
35577;BME280;21680;52.400;16.920;2023-05-08T06:10:19;102190.77;;;7.61;71.80
35577;BME280;21680;52.400;16.920;2023-05-08T06:12:44;102192.86;;;7.67;71.71
35577;BME280;21680;52.400;16.920;2023-05-08T06:15:10;102189.61;;;7.73;71.68
35577;BME280;21680;52.400;16.920;2023-05-08T06:17:36;102187.80;;;7.78;71.58
35577;BME280;21680;52.400;16.920;2023-05-08T06:20:02;102183.27;;;7.84;71.53
35577;BME280;21680;52.400;16.920;2023-05-08T06:22:27;102181.05;;;7.94;71.61
35577;BME280;21680;52.400;16.920;2023-05-08T06:24:54;102184.55;;;8.02;71.49
35577;BME280;21680;52.400;16.920;2023-05-08T06:27:20;102183.61;;;8.08;71.31
35577;BME280;21680;52.400;16.920;2023-05-08T06:29:48;102185.49;;;8.16;71.24
35577;BME280;21680;52.400;16.920;2023-05-08T06:32:20;102185.65;;;8.19;71.08
35577;BME280;21680;52.400;16.920;2023-05-08T06:34:46;102186.88;;;8.22;70.92
35577;BME280;21680;52.400;16.920;2023-05-08T06:37:11;102187.36;;;8.26;70.86
35577;BME280;21680;52.400;16.920;2023-05-08T06:39:36;102186.79;;;8.31;70.83
35577;BME280;21680;52.400;16.920;2023-05-08T06:42:02;102187.46;;;8.38;70.73
35577;BME280;21680;52.400;16.920;2023-05-08T06:44:30;102188.65;;;8.44;70.53
35577;BME280;21680;52.400;16.920;2023-05-08T06:46:56;102185.02;;;8.51;70.35
35577;BME280;21680;52.400;16.920;2023-05-08T06:49:21;102184.26;;;8.56;70.33
35577;BME280;21680;52.400;16.920;2023-05-08T06:51:47;102185.45;;;8.61;70.26
35577;BME280;21680;52.400;16.920;2023-05-08T06:54:12;102185.72;;;8.69;70.10
35577;BME280;21680;52.400;16.920;2023-05-08T06:56:37;102190.81;;;8.76;69.95
35577;BME280;21680;52.400;16.920;2023-05-08T06:59:03;102186.64;;;8.83;69.84
35577;BME280;21680;52.400;16.920;2023-05-08T07:01:28;102190.83;;;8.90;69.73
35577;BME280;21680;52.400;16.920;2023-05-08T07:03:53;102196.80;;;8.97;69.60
35577;BME280;21680;52.400;16.920;2023-05-08T07:06:18;102197.27;;;9.04;69.53
35577;BME280;21680;52.400;16.920;2023-05-08T07:08:43;102193.96;;;9.11;69.32
35577;BME280;21680;52.400;16.920;2023-05-08T07:11:09;102195.98;;;9.21;69.26
35577;BME280;21680;52.400;16.920;2023-05-08T07:13:35;102197.45;;;9.30;69.12
35577;BME280;21680;52.400;16.920;2023-05-08T07:16:01;102200.55;;;9.38;68.94
35577;BME280;21680;52.400;16.920;2023-05-08T07:18:27;102203.30;;;9.47;68.76
35577;BME280;21680;52.400;16.920;2023-05-08T07:20:53;102201.77;;;9.54;68.55
35577;BME280;21680;52.400;16.920;2023-05-08T07:23:18;102201.50;;;9.60;68.48
35577;BME280;21680;52.400;16.920;2023-05-08T07:25:44;102204.09;;;9.66;68.19
35577;BME280;21680;52.400;16.920;2023-05-08T07:28:09;102208.11;;;9.71;68.14
35577;BME280;21680;52.400;16.920;2023-05-08T07:30:34;102206.05;;;9.78;67.86
35577;BME280;21680;52.400;16.920;2023-05-08T07:33:00;102205.24;;;9.84;67.67
35577;BME280;21680;52.400;16.920;2023-05-08T07:35:25;102207.14;;;9.89;67.42
35577;BME280;21680;52.400;16.920;2023-05-08T07:37:51;102206.36;;;9.92;67.11
35577;BME280;21680;52.400;16.920;2023-05-08T07:40:16;102208.09;;;9.96;67.04
35577;BME280;21680;52.400;16.920;2023-05-08T07:42:43;102208.34;;;10.02;66.89
35577;BME280;21680;52.400;16.920;2023-05-08T07:45:10;102206.64;;;10.09;66.64
35577;BME280;21680;52.400;16.920;2023-05-08T07:47:48;102205.33;;;10.12;66.43
35577;BME280;21680;52.400;16.920;2023-05-08T07:50:13;102206.16;;;10.16;66.19
35577;BME280;21680;52.400;16.920;2023-05-08T07:52:38;102206.27;;;10.21;65.96
35577;BME280;21680;52.400;16.920;2023-05-08T07:55:04;102204.42;;;10.26;65.72
35577;BME280;21680;52.400;16.920;2023-05-08T07:57:35;102203.11;;;10.29;65.53
35577;BME280;21680;52.400;16.920;2023-05-08T08:00:02;102204.29;;;10.33;65.30
35577;BME280;21680;52.400;16.920;2023-05-08T08:02:27;102206.57;;;10.35;65.14
35577;BME280;21680;52.400;16.920;2023-05-08T08:04:52;102202.38;;;10.39;65.06
35577;BME280;21680;52.400;16.920;2023-05-08T08:07:18;102203.88;;;10.45;64.84
35577;BME280;21680;52.400;16.920;2023-05-08T08:09:43;102203.23;;;10.50;64.70
35577;BME280;21680;52.400;16.920;2023-05-08T08:12:08;102202.41;;;10.56;64.52
35577;BME280;21680;52.400;16.920;2023-05-08T08:14:34;102199.46;;;10.61;64.33
35577;BME280;21680;52.400;16.920;2023-05-08T08:16:59;102202.05;;;10.66;64.24
35577;BME280;21680;52.400;16.920;2023-05-08T08:19:25;102194.77;;;10.72;63.95
35577;BME280;21680;52.400;16.920;2023-05-08T08:21:50;102189.31;;;10.78;63.78
35577;BME280;21680;52.400;16.920;2023-05-08T08:24:16;102192.71;;;10.86;63.86
35577;BME280;21680;52.400;16.920;2023-05-08T08:26:41;102197.02;;;10.94;63.57
35577;BME280;21680;52.400;16.920;2023-05-08T08:29:06;102192.75;;;11.02;63.42
35577;BME280;21680;52.400;16.920;2023-05-08T08:31:32;102189.95;;;11.07;63.21
35577;BME280;21680;52.400;16.920;2023-05-08T08:33:57;102183.95;;;11.13;63.14
35577;BME280;21680;52.400;16.920;2023-05-08T08:36:22;102183.77;;;11.21;63.00
35577;BME280;21680;52.400;16.920;2023-05-08T08:38:47;102186.27;;;11.29;62.86
35577;BME280;21680;52.400;16.920;2023-05-08T08:41:13;102185.56;;;11.36;62.69
35577;BME280;21680;52.400;16.920;2023-05-08T08:43:42;102182.91;;;11.44;62.56
35577;BME280;21680;52.400;16.920;2023-05-08T08:46:12;102184.05;;;11.49;62.46
35577;BME280;21680;52.400;16.920;2023-05-08T08:48:45;102184.26;;;11.55;62.21
35577;BME280;21680;52.400;16.920;2023-05-08T08:51:18;102183.23;;;11.61;62.00
35577;BME280;21680;52.400;16.920;2023-05-08T08:53:48;102175.43;;;11.65;61.86
35577;BME280;21680;52.400;16.920;2023-05-08T08:56:20;102179.04;;;11.72;61.82
35577;BME280;21680;52.400;16.920;2023-05-08T08:58:54;102179.40;;;11.80;61.52
35577;BME280;21680;52.400;16.920;2023-05-08T09:01:20;102179.11;;;11.85;61.39
35577;BME280;21680;52.400;16.920;2023-05-08T09:03:47;102176.29;;;11.91;61.20
35577;BME280;21680;52.400;16.920;2023-05-08T09:06:12;102175.59;;;11.97;61.03
35577;BME280;21680;52.400;16.920;2023-05-08T09:08:40;102176.88;;;12.03;60.82
35577;BME280;21680;52.400;16.920;2023-05-08T09:11:05;102170.05;;;12.04;60.59
35577;BME280;21680;52.400;16.920;2023-05-08T09:13:30;102169.26;;;12.07;60.51
35577;BME280;21680;52.400;16.920;2023-05-08T09:15:57;102167.71;;;12.12;60.42
35577;BME280;21680;52.400;16.920;2023-05-08T09:18:24;102166.42;;;12.19;60.18
35577;BME280;21680;52.400;16.920;2023-05-08T09:20:49;102169.67;;;12.25;59.89
35577;BME280;21680;52.400;16.920;2023-05-08T09:23:16;102166.08;;;12.33;59.85
35577;BME280;21680;52.400;16.920;2023-05-08T09:25:46;102161.81;;;12.38;59.55
35577;BME280;21680;52.400;16.920;2023-05-08T09:28:25;102165.41;;;12.44;59.33
35577;BME280;21680;52.400;16.920;2023-05-08T09:30:52;102163.60;;;12.51;59.16
35577;BME280;21680;52.400;16.920;2023-05-08T09:33:19;102162.36;;;12.57;59.03
35577;BME280;21680;52.400;16.920;2023-05-08T09:35:47;102159.54;;;12.62;58.85
35577;BME280;21680;52.400;16.920;2023-05-08T09:38:35;102153.66;;;12.67;58.70
35577;BME280;21680;52.400;16.920;2023-05-08T09:41:12;102153.87;;;12.73;58.63
35577;BME280;21680;52.400;16.920;2023-05-08T09:43:42;102153.52;;;12.79;58.42
35577;BME280;21680;52.400;16.920;2023-05-08T09:46:25;102151.55;;;12.85;58.29
35577;BME280;21680;52.400;16.920;2023-05-08T09:48:56;102149.73;;;12.92;58.11
35577;BME280;21680;52.400;16.920;2023-05-08T09:51:22;102147.91;;;12.92;57.81
35577;BME280;21680;52.400;16.920;2023-05-08T09:53:53;102153.40;;;12.89;57.53
35577;BME280;21680;52.400;16.920;2023-05-08T09:56:37;102151.05;;;12.89;57.36
35577;BME280;21680;52.400;16.920;2023-05-08T09:59:05;102153.30;;;12.92;57.26
35577;BME280;21680;52.400;16.920;2023-05-08T10:01:45;102146.95;;;13.00;56.93
35577;BME280;21680;52.400;16.920;2023-05-08T10:04:12;102148.93;;;13.06;56.83
35577;BME280;21680;52.400;16.920;2023-05-08T10:06:38;102147.94;;;13.15;56.58
35577;BME280;21680;52.400;16.920;2023-05-08T10:09:08;102145.70;;;13.24;56.46
35577;BME280;21680;52.400;16.920;2023-05-08T10:11:34;102142.08;;;13.31;56.10
35577;BME280;21680;52.400;16.920;2023-05-08T10:13:59;102144.48;;;13.34;55.88
35577;BME280;21680;52.400;16.920;2023-05-08T10:16:27;102143.47;;;13.44;55.89
35577;BME280;21680;52.400;16.920;2023-05-08T10:18:54;102137.63;;;13.53;55.56
35577;BME280;21680;52.400;16.920;2023-05-08T10:21:27;102136.52;;;13.59;55.36
35577;BME280;21680;52.400;16.920;2023-05-08T10:23:55;102135.05;;;13.66;55.11
35577;BME280;21680;52.400;16.920;2023-05-08T10:26:29;102136.45;;;13.73;54.84
35577;BME280;21680;52.400;16.920;2023-05-08T10:29:03;102139.66;;;13.84;54.73
35577;BME280;21680;52.400;16.920;2023-05-08T10:31:33;102129.34;;;13.92;54.22
35577;BME280;21680;52.400;16.920;2023-05-08T10:34:00;102131.55;;;13.95;53.91
35577;BME280;21680;52.400;16.920;2023-05-08T10:36:27;102129.05;;;14.00;53.62
35577;BME280;21680;52.400;16.920;2023-05-08T10:38:53;102123.14;;;14.10;53.71
35577;BME280;21680;52.400;16.920;2023-05-08T10:41:19;102123.58;;;14.18;53.17
35577;BME280;21680;52.400;16.920;2023-05-08T10:43:47;102121.91;;;14.25;53.14
35577;BME280;21680;52.400;16.920;2023-05-08T10:46:21;102116.20;;;14.39;52.73
35577;BME280;21680;52.400;16.920;2023-05-08T10:48:57;102110.83;;;14.44;52.25
35577;BME280;21680;52.400;16.920;2023-05-08T10:51:37;102107.73;;;14.55;52.37
35577;BME280;21680;52.400;16.920;2023-05-08T10:54:09;102110.94;;;14.66;52.23
35577;BME280;21680;52.400;16.920;2023-05-08T10:56:37;102106.85;;;14.74;51.99
35577;BME280;21680;52.400;16.920;2023-05-08T10:59:04;102109.57;;;14.78;51.75
35577;BME280;21680;52.400;16.920;2023-05-08T11:01:30;102104.80;;;14.76;51.57
35577;BME280;21680;52.400;16.920;2023-05-08T11:03:55;102102.54;;;14.83;51.48
35577;BME280;21680;52.400;16.920;2023-05-08T11:06:43;102104.63;;;14.85;51.12
35577;BME280;21680;52.400;16.920;2023-05-08T11:09:17;102102.42;;;14.96;51.06
35577;BME280;21680;52.400;16.920;2023-05-08T11:11:51;102101.58;;;15.13;51.02
35577;BME280;21680;52.400;16.920;2023-05-08T11:14:22;102095.69;;;15.20;50.62
35577;BME280;21680;52.400;16.920;2023-05-08T11:19:20;102089.02;;;15.47;50.43
35577;BME280;21680;52.400;16.920;2023-05-08T11:22:15;102086.45;;;15.58;50.22
35577;BME280;21680;52.400;16.920;2023-05-08T11:25:09;102085.60;;;15.69;50.22
35577;BME280;21680;52.400;16.920;2023-05-08T11:30:33;102074.39;;;15.70;49.42
35577;BME280;21680;52.400;16.920;2023-05-08T11:35:52;102076.77;;;15.77;49.09
35577;BME280;21680;52.400;16.920;2023-05-08T11:41:02;102079.66;;;16.03;48.85
35577;BME280;21680;52.400;16.920;2023-05-08T11:46:00;102070.55;;;16.01;48.18
35577;BME280;21680;52.400;16.920;2023-05-08T11:48:27;102066.41;;;16.09;48.23
35577;BME280;21680;52.400;16.920;2023-05-08T11:50:52;102062.80;;;16.21;48.13
35577;BME280;21680;52.400;16.920;2023-05-08T11:53:18;102061.29;;;16.35;48.03
35577;BME280;21680;52.400;16.920;2023-05-08T11:55:47;102063.21;;;16.48;47.97
35577;BME280;21680;52.400;16.920;2023-05-08T11:58:14;102061.78;;;16.59;47.85
35577;BME280;21680;52.400;16.920;2023-05-08T12:00:43;102056.31;;;16.80;47.66
35577;BME280;21680;52.400;16.920;2023-05-08T12:03:14;102053.23;;;16.96;47.57
35577;BME280;21680;52.400;16.920;2023-05-08T12:05:40;102053.54;;;17.05;47.23
35577;BME280;21680;52.400;16.920;2023-05-08T12:08:07;102051.79;;;17.07;46.95
35577;BME280;21680;52.400;16.920;2023-05-08T12:10:59;102047.77;;;17.08;46.77
35577;BME280;21680;52.400;16.920;2023-05-08T12:13:26;102053.88;;;17.05;46.08
35577;BME280;21680;52.400;16.920;2023-05-08T12:15:57;102055.27;;;17.10;46.06
35577;BME280;21680;52.400;16.920;2023-05-08T12:18:25;102052.65;;;17.15;45.91
35577;BME280;21680;52.400;16.920;2023-05-08T12:20:57;102050.95;;;17.21;45.75
35577;BME280;21680;52.400;16.920;2023-05-08T12:23:29;102046.10;;;17.16;45.32
35577;BME280;21680;52.400;16.920;2023-05-08T12:25:58;102050.63;;;17.24;45.06
35577;BME280;21680;52.400;16.920;2023-05-08T12:28:24;102051.81;;;17.36;45.01
35577;BME280;21680;52.400;16.920;2023-05-08T12:30:54;102050.61;;;17.53;44.72
35577;BME280;21680;52.400;16.920;2023-05-08T12:33:20;102052.34;;;17.66;44.48
35577;BME280;21680;52.400;16.920;2023-05-08T12:35:47;102051.02;;;17.78;43.94
35577;BME280;21680;52.400;16.920;2023-05-08T12:38:12;102049.23;;;17.77;43.68
35577;BME280;21680;52.400;16.920;2023-05-08T12:40:43;102046.54;;;17.81;43.26
35577;BME280;21680;52.400;16.920;2023-05-08T12:43:09;102044.17;;;17.84;43.11
35577;BME280;21680;52.400;16.920;2023-05-08T12:45:40;102043.06;;;18.02;43.19
35577;BME280;21680;52.400;16.920;2023-05-08T12:48:08;102035.77;;;18.33;42.74
35577;BME280;21680;52.400;16.920;2023-05-08T12:50:39;102030.27;;;18.51;42.70
35577;BME280;21680;52.400;16.920;2023-05-08T12:53:15;102033.72;;;18.68;42.66
35577;BME280;21680;52.400;16.920;2023-05-08T12:55:54;102033.09;;;18.83;42.38
35577;BME280;21680;52.400;16.920;2023-05-08T12:58:24;102033.02;;;18.84;41.95
35577;BME280;21680;52.400;16.920;2023-05-08T13:00:51;102031.48;;;18.98;42.09
35577;BME280;21680;52.400;16.920;2023-05-08T13:03:26;102026.83;;;19.13;41.49
35577;BME280;21680;52.400;16.920;2023-05-08T13:05:53;102025.88;;;18.98;41.02
35577;BME280;21680;52.400;16.920;2023-05-08T13:08:18;102022.27;;;19.13;41.35
35577;BME280;21680;52.400;16.920;2023-05-08T13:10:55;102019.40;;;19.41;40.91
35577;BME280;21680;52.400;16.920;2023-05-08T13:13:24;102014.27;;;19.61;40.67
35577;BME280;21680;52.400;16.920;2023-05-08T13:15:51;102014.75;;;19.56;40.22
35577;BME280;21680;52.400;16.920;2023-05-08T13:18:18;102015.94;;;19.48;40.15
35577;BME280;21680;52.400;16.920;2023-05-08T13:20:43;102015.15;;;19.58;40.24
35577;BME280;21680;52.400;16.920;2023-05-08T13:23:09;102006.78;;;19.74;40.21
35577;BME280;21680;52.400;16.920;2023-05-08T13:25:35;102006.41;;;19.80;39.75
35577;BME280;21680;52.400;16.920;2023-05-08T13:28:02;101999.81;;;20.02;39.56
35577;BME280;21680;52.400;16.920;2023-05-08T13:30:28;101994.58;;;20.16;39.01